createdAt,value
2018-10-17T00:01:37.706Z,101305.00
2018-10-17T00:04:06.865Z,101311.00
2018-10-17T00:06:35.694Z,101304.00
2018-10-17T00:09:07.250Z,101292.00
2018-10-17T00:11:36.329Z,101288.00
2018-10-17T00:14:05.441Z,101286.00
2018-10-17T00:16:34.262Z,101290.00
2018-10-17T00:19:03.160Z,101287.00
2018-10-17T00:21:31.933Z,101288.00
2018-10-17T00:24:00.865Z,101292.00
2018-10-17T00:26:29.714Z,101290.00
2018-10-17T00:28:58.565Z,101288.00
2018-10-17T00:31:28.417Z,101292.00
2018-10-17T00:33:57.253Z,101291.00
2018-10-17T00:36:26.146Z,101293.00
2018-10-17T00:38:55.034Z,101288.00
2018-10-17T00:41:23.857Z,101296.00
2018-10-17T00:43:52.690Z,101294.00
2018-10-17T00:46:22.164Z,101297.00
2018-10-17T00:48:51.036Z,101294.00
2018-10-17T00:51:19.875Z,101300.00
2018-10-17T00:53:48.866Z,101296.00
2018-10-17T00:56:17.699Z,101295.00
2018-10-17T00:59:08.512Z,101301.00
2018-10-17T01:01:37.757Z,101296.00
2018-10-17T01:04:07.065Z,101296.00
2018-10-17T01:06:36.381Z,101297.00
2018-10-17T01:09:09.386Z,101302.00
2018-10-17T01:11:38.653Z,101307.00
2018-10-17T01:14:07.957Z,101301.00
2018-10-17T01:16:36.938Z,101297.00
2018-10-17T01:19:06.332Z,101301.00
2018-10-17T01:21:35.753Z,101300.00
2018-10-17T01:24:04.870Z,101307.00
2018-10-17T01:26:33.966Z,101291.00
2018-10-17T01:29:02.883Z,101297.00
2018-10-17T01:31:31.646Z,101288.00
2018-10-17T01:34:00.482Z,101285.00
2018-10-17T01:36:30.134Z,101287.00
2018-10-17T01:38:58.954Z,101292.00
2018-10-17T01:41:27.833Z,101286.00
2018-10-17T01:43:56.668Z,101282.00
2018-10-17T01:46:25.493Z,101283.00
2018-10-17T01:48:55.042Z,101298.00
2018-10-17T01:51:24.405Z,101296.00
2018-10-17T01:53:53.778Z,101287.00
2018-10-17T01:56:22.632Z,101281.00
2018-10-17T01:58:51.466Z,101279.00
2018-10-17T02:01:20.339Z,101280.00
2018-10-17T02:03:49.170Z,101277.00
2018-10-17T02:06:17.998Z,101282.00
2018-10-17T02:08:46.854Z,101276.00
2018-10-17T02:11:15.700Z,101273.00
2018-10-17T02:13:44.533Z,101274.00
2018-10-17T02:16:13.357Z,101277.00
2018-10-17T02:18:42.210Z,101290.00
2018-10-17T02:21:11.034Z,101276.00
2018-10-17T02:23:39.871Z,101284.00
2018-10-17T02:26:08.681Z,101274.00
2018-10-17T02:28:37.525Z,101270.00
2018-10-17T02:31:06.472Z,101277.00
2018-10-17T02:33:35.234Z,101276.00
2018-10-17T02:36:04.298Z,101279.00
2018-10-17T02:38:33.119Z,101278.00
2018-10-17T02:41:02.143Z,101275.00
2018-10-17T02:43:30.954Z,101275.00
2018-10-17T02:45:59.807Z,101278.00
2018-10-17T02:48:28.626Z,101280.00
2018-10-17T02:50:57.520Z,101278.00
2018-10-17T02:53:26.423Z,101274.00
2018-10-17T02:55:55.241Z,101271.00
2018-10-17T02:58:24.086Z,101287.00
2018-10-17T03:00:52.926Z,101287.00
2018-10-17T03:03:21.844Z,101287.00
2018-10-17T03:05:50.707Z,101286.00
2018-10-17T03:08:19.570Z,101289.00
2018-10-17T03:10:48.453Z,101288.00
2018-10-17T03:13:17.340Z,101282.00
2018-10-17T03:15:46.210Z,101278.00
2018-10-17T03:18:15.028Z,101282.00
2018-10-17T03:23:42.906Z,101279.00
2018-10-17T03:26:11.742Z,101284.00
2018-10-17T03:28:40.662Z,101282.00
2018-10-17T03:31:09.505Z,101281.00
2018-10-17T03:33:38.362Z,101280.00
2018-10-17T03:36:07.198Z,101277.00
2018-10-17T03:38:36.121Z,101281.00
2018-10-17T03:41:05.160Z,101273.00
2018-10-17T03:43:33.939Z,101281.00
2018-10-17T03:46:02.806Z,101283.00
2018-10-17T03:48:31.642Z,101294.00
2018-10-17T03:51:00.514Z,101294.00
2018-10-17T03:53:29.422Z,101299.00
2018-10-17T03:55:58.238Z,101295.00
2018-10-17T03:58:27.079Z,101288.00
2018-10-17T04:00:55.988Z,101293.00
2018-10-17T04:03:24.775Z,101300.00
2018-10-17T04:05:54.109Z,101300.00
2018-10-17T04:08:22.966Z,101298.00
2018-10-17T04:10:51.820Z,101306.00
2018-10-17T04:13:20.803Z,101300.00
2018-10-17T04:15:49.618Z,101298.00
2018-10-17T04:18:18.449Z,101304.00
2018-10-17T04:20:47.332Z,101293.00
2018-10-17T04:23:16.205Z,101298.00
2018-10-17T04:25:45.040Z,101296.00
2018-10-17T04:28:13.870Z,101301.00
2018-10-17T04:30:42.692Z,101300.00
2018-10-17T04:34:15.274Z,101308.00
2018-10-17T04:36:44.127Z,101296.00
2018-10-17T04:39:13.059Z,101308.00
2018-10-17T04:41:42.180Z,101311.00
2018-10-17T04:44:11.884Z,101310.00
2018-10-17T04:46:40.735Z,101306.00
2018-10-17T04:49:10.088Z,101297.00
2018-10-17T04:51:38.923Z,101306.00
2018-10-17T04:54:07.928Z,101310.00
2018-10-17T04:56:36.805Z,101306.00
2018-10-17T04:59:05.961Z,101307.00
2018-10-17T05:01:34.767Z,101311.00
2018-10-17T05:04:03.651Z,101307.00
2018-10-17T05:06:32.522Z,101315.00
2018-10-17T05:09:01.385Z,101313.00
2018-10-17T05:11:30.205Z,101309.00
2018-10-17T05:13:59.062Z,101319.00
2018-10-17T05:16:27.898Z,101315.00
2018-10-17T05:18:56.745Z,101317.00
2018-10-17T05:21:25.606Z,101317.00
2018-10-17T05:23:54.424Z,101329.00
2018-10-17T05:26:23.307Z,101328.00
2018-10-17T05:28:52.180Z,101329.00
2018-10-17T05:31:21.022Z,101328.00
2018-10-17T05:34:53.590Z,101324.00
2018-10-17T05:37:22.420Z,101336.00
2018-10-17T05:39:51.226Z,101346.00
2018-10-17T05:42:20.118Z,101339.00
2018-10-17T05:44:49.019Z,101340.00
2018-10-17T05:47:17.894Z,101338.00
2018-10-17T05:49:46.751Z,101335.00
2018-10-17T05:52:15.585Z,101337.00
2018-10-17T05:54:44.394Z,101336.00
2018-10-17T05:57:13.300Z,101339.00
2018-10-17T05:59:42.147Z,101343.00
2018-10-17T06:02:14.747Z,101344.00
2018-10-17T06:04:43.522Z,101347.00
2018-10-17T06:07:12.477Z,101362.00
2018-10-17T06:09:41.199Z,101359.00
2018-10-17T06:12:10.042Z,101361.00
2018-10-17T06:14:39.446Z,101345.00
2018-10-17T06:17:08.393Z,101352.00
2018-10-17T06:19:37.346Z,101349.00
2018-10-17T06:22:06.236Z,101366.00
2018-10-17T06:24:35.102Z,101364.00
2018-10-17T06:27:03.929Z,101370.00
2018-10-17T06:29:32.791Z,101360.00
2018-10-17T06:32:01.772Z,101359.00
2018-10-17T06:34:30.645Z,101362.00
2018-10-17T06:36:59.507Z,101358.00
2018-10-17T06:39:28.418Z,101360.00
2018-10-17T06:41:57.386Z,101368.00
2018-10-17T06:44:26.240Z,101365.00
2018-10-17T06:46:55.282Z,101366.00
2018-10-17T06:49:24.159Z,101361.00
2018-10-17T06:51:53.006Z,101360.00
2018-10-17T06:54:22.012Z,101365.00
2018-10-17T06:56:50.807Z,101359.00
2018-10-17T06:59:19.734Z,101369.00
2018-10-17T07:01:48.726Z,101363.00
2018-10-17T07:04:17.519Z,101368.00
2018-10-17T07:06:46.412Z,101356.00
2018-10-17T07:09:15.875Z,101365.00
2018-10-17T07:11:44.800Z,101361.00
2018-10-17T07:14:13.678Z,101360.00
2018-10-17T07:16:42.562Z,101361.00
2018-10-17T07:19:11.604Z,101364.00
2018-10-17T07:21:40.343Z,101371.00
2018-10-17T07:24:09.291Z,101364.00
2018-10-17T07:26:38.222Z,101362.00
2018-10-17T07:29:07.248Z,101367.00
2018-10-17T07:31:36.107Z,101370.00
2018-10-17T07:34:05.004Z,101369.00
2018-10-17T07:36:33.910Z,101381.00
2018-10-17T07:39:02.854Z,101368.00
2018-10-17T07:41:31.790Z,101362.00
2018-10-17T07:44:00.662Z,101367.00
2018-10-17T07:46:29.569Z,101364.00
2018-10-17T07:48:58.471Z,101366.00
2018-10-17T07:51:27.356Z,101370.00
2018-10-17T07:53:57.196Z,101365.00
2018-10-17T07:56:26.458Z,101366.00
2018-10-17T07:58:55.510Z,101361.00
2018-10-17T08:01:25.789Z,101373.00
2018-10-17T08:03:55.790Z,101359.00
2018-10-17T08:06:24.711Z,101365.00
2018-10-17T08:08:53.844Z,101362.00
2018-10-17T08:11:22.666Z,101369.00
2018-10-17T08:13:51.765Z,101365.00
2018-10-17T08:16:20.669Z,101366.00
2018-10-17T08:18:49.530Z,101366.00
2018-10-17T08:21:18.411Z,101368.00
2018-10-17T08:23:47.330Z,101377.00
2018-10-17T08:26:16.186Z,101372.00
2018-10-17T08:28:45.103Z,101364.00
2018-10-17T08:31:13.983Z,101368.00
2018-10-17T08:33:42.895Z,101373.00
2018-10-17T08:36:12.951Z,101377.00
2018-10-17T08:38:41.679Z,101371.00
2018-10-17T08:41:10.629Z,101368.00
2018-10-17T08:43:39.470Z,101377.00
2018-10-17T08:46:08.353Z,101367.00
2018-10-17T08:48:37.220Z,101375.00
2018-10-17T08:51:06.100Z,101386.00
2018-10-17T08:53:34.999Z,101382.00
2018-10-17T08:56:03.953Z,101376.00
2018-10-17T08:58:32.786Z,101378.00
2018-10-17T09:01:01.647Z,101374.00
2018-10-17T09:03:30.583Z,101377.00
2018-10-17T09:05:59.487Z,101375.00
2018-10-17T09:08:28.394Z,101369.00
2018-10-17T09:10:57.240Z,101377.00
2018-10-17T09:13:26.256Z,101373.00
2018-10-17T09:15:55.165Z,101380.00
2018-10-17T09:18:24.033Z,101382.00
2018-10-17T09:20:53.785Z,101373.00
2018-10-17T09:23:22.064Z,101366.00
2018-10-17T09:25:50.953Z,101365.00
2018-10-17T09:28:19.783Z,101379.00
2018-10-17T09:30:48.570Z,101372.00
2018-10-17T09:33:17.350Z,101372.00
2018-10-17T09:35:46.186Z,101364.00
2018-10-17T09:38:14.852Z,101371.00
2018-10-17T09:40:43.547Z,101371.00
2018-10-17T09:43:12.311Z,101372.00
2018-10-17T09:45:40.946Z,101370.00
2018-10-17T09:48:09.920Z,101377.00
2018-10-17T09:50:38.586Z,101377.00
2018-10-17T09:53:07.323Z,101375.00
2018-10-17T09:55:35.997Z,101374.00
2018-10-17T09:58:04.802Z,101368.00
2018-10-17T10:00:39.078Z,101363.00
2018-10-17T10:03:07.765Z,101369.00
2018-10-17T10:05:36.442Z,101362.00
2018-10-17T10:08:05.386Z,101374.00
2018-10-17T10:10:34.124Z,101366.00
2018-10-17T10:13:02.837Z,101367.00
2018-10-17T10:15:31.641Z,101364.00
2018-10-17T10:18:00.481Z,101364.00
2018-10-17T10:20:29.401Z,101366.00
2018-10-17T10:22:58.248Z,101358.00
2018-10-17T10:25:27.663Z,101360.00
2018-10-17T10:27:56.374Z,101361.00
2018-10-17T10:30:25.217Z,101351.00
2018-10-17T10:32:53.963Z,101350.00
2018-10-17T10:35:22.718Z,101336.00
2018-10-17T10:37:51.459Z,101334.00
2018-10-17T10:40:20.120Z,101335.00
2018-10-17T10:42:49.097Z,101331.00
2018-10-17T10:45:18.009Z,101327.00
2018-10-17T10:47:46.562Z,101329.00
2018-10-17T10:50:15.425Z,101326.00
2018-10-17T10:52:44.102Z,101331.00
2018-10-17T10:55:12.815Z,101330.00
2018-10-17T10:57:41.502Z,101325.00
2018-10-17T11:00:10.282Z,101324.00
2018-10-17T11:02:38.973Z,101318.00
2018-10-17T11:05:07.734Z,101314.00
2018-10-17T11:07:36.352Z,101308.00
2018-10-17T11:10:05.323Z,101307.00
2018-10-17T11:12:34.239Z,101255.00
2018-10-17T11:15:03.293Z,101309.00
2018-10-17T11:17:32.051Z,101308.00
2018-10-17T11:20:00.892Z,101313.00
2018-10-17T11:22:29.838Z,101310.00
2018-10-17T11:24:58.778Z,101306.00
2018-10-17T11:27:28.088Z,101311.00
2018-10-17T11:29:56.939Z,101308.00
2018-10-17T11:32:25.967Z,101304.00
2018-10-17T11:34:54.995Z,101302.00
2018-10-17T11:37:23.884Z,101305.00
2018-10-17T11:39:52.641Z,101301.00
2018-10-17T11:42:21.559Z,101304.00
2018-10-17T11:44:50.440Z,101302.00
2018-10-17T11:47:19.306Z,101304.00
2018-10-17T11:49:48.287Z,101315.00
2018-10-17T11:52:17.191Z,101306.00
2018-10-17T11:54:46.402Z,101308.00
2018-10-17T11:57:15.437Z,101307.00
2018-10-17T11:59:44.289Z,101299.00
2018-10-17T12:02:13.091Z,101293.00
2018-10-17T12:04:42.157Z,101293.00
2018-10-17T12:07:10.835Z,101291.00
2018-10-17T12:09:39.754Z,101298.00
2018-10-17T12:12:08.691Z,101291.00
2018-10-17T12:14:38.001Z,101293.00
2018-10-17T12:17:06.710Z,101291.00
2018-10-17T12:19:35.658Z,101291.00
2018-10-17T12:22:04.568Z,101291.00
2018-10-17T12:24:35.017Z,101289.00
2018-10-17T12:27:03.882Z,101287.00
2018-10-17T12:29:32.576Z,101290.00
2018-10-17T12:32:01.317Z,101291.00
2018-10-17T12:34:30.166Z,101289.00
2018-10-17T12:36:58.927Z,101294.00
2018-10-17T12:39:28.113Z,101286.00
2018-10-17T12:41:56.847Z,101292.00
2018-10-17T12:44:25.996Z,101295.00
2018-10-17T12:46:54.833Z,101292.00
2018-10-17T12:49:23.719Z,101290.00
2018-10-17T12:51:52.640Z,101296.00
2018-10-17T12:54:21.570Z,101292.00
2018-10-17T12:56:50.398Z,101290.00
2018-10-17T12:59:19.343Z,101299.00
2018-10-17T13:01:48.210Z,101297.00
2018-10-17T13:04:17.062Z,101292.00
2018-10-17T13:06:45.906Z,101293.00
2018-10-17T13:09:14.842Z,101293.00
2018-10-17T13:11:43.744Z,101295.00
2018-10-17T13:14:12.590Z,101290.00
2018-10-17T13:16:41.421Z,101284.00
2018-10-17T13:19:10.362Z,101290.00
2018-10-17T13:21:39.203Z,101283.00
2018-10-17T13:24:08.082Z,101286.00
2018-10-17T13:26:37.040Z,101287.00
2018-10-17T13:29:06.585Z,101277.00
2018-10-17T13:31:35.743Z,101285.00
2018-10-17T13:34:05.960Z,101286.00
2018-10-17T13:36:35.056Z,101288.00
2018-10-17T13:39:06.031Z,101284.00
2018-10-17T13:41:34.969Z,101290.00
2018-10-17T13:44:03.993Z,101285.00
2018-10-17T13:46:32.918Z,101287.00
2018-10-17T13:49:01.947Z,101284.00
2018-10-17T13:51:30.803Z,101284.00
2018-10-17T13:53:59.729Z,101293.00
2018-10-17T14:03:23.350Z,101283.00
2018-10-17T14:05:52.191Z,101281.00
2018-10-17T14:08:21.065Z,101279.00
2018-10-17T14:10:50.039Z,101264.00
2018-10-17T14:13:18.975Z,101272.00
2018-10-17T14:15:47.854Z,101274.00
2018-10-17T14:18:16.808Z,101266.00
2018-10-17T14:20:45.830Z,101274.00
2018-10-17T14:23:14.798Z,101272.00
2018-10-17T14:25:43.708Z,101269.00
2018-10-17T14:28:12.602Z,101275.00
2018-10-17T14:30:41.651Z,101267.00
2018-10-17T14:33:10.595Z,101278.00
2018-10-17T14:35:39.472Z,101274.00
2018-10-17T14:38:08.376Z,101273.00
2018-10-17T14:40:37.295Z,101270.00
2018-10-17T14:43:06.142Z,101272.00
2018-10-17T14:45:35.049Z,101272.00
2018-10-17T14:48:03.946Z,101272.00
2018-10-17T14:50:32.815Z,101271.00
2018-10-17T14:53:01.742Z,101275.00
2018-10-17T14:55:30.665Z,101274.00
2018-10-17T14:57:59.580Z,101278.00
2018-10-17T15:00:28.459Z,101272.00
2018-10-17T15:02:57.362Z,101274.00
2018-10-17T15:05:26.262Z,101275.00
2018-10-17T15:07:55.152Z,101278.00
2018-10-17T15:10:24.116Z,101282.00
2018-10-17T15:12:53.040Z,101278.00
2018-10-17T15:15:21.912Z,101279.00
2018-10-17T15:17:50.814Z,101281.00
2018-10-17T15:20:19.679Z,101282.00
2018-10-17T15:22:48.597Z,101285.00
2018-10-17T15:25:17.470Z,101286.00
2018-10-17T15:27:46.330Z,101282.00
2018-10-17T15:30:15.441Z,101285.00
2018-10-17T15:32:44.214Z,101289.00
2018-10-17T15:35:13.131Z,101288.00
2018-10-17T15:37:42.014Z,101288.00
2018-10-17T15:40:11.690Z,101292.00
2018-10-17T15:42:40.684Z,101298.00
2018-10-17T15:45:09.665Z,101293.00
2018-10-17T15:47:38.494Z,101290.00
2018-10-17T15:50:07.625Z,101288.00
2018-10-17T15:52:36.495Z,101286.00
2018-10-17T15:55:05.919Z,101292.00
2018-10-17T15:57:34.848Z,101291.00
2018-10-17T16:00:06.889Z,101293.00
2018-10-17T16:02:35.570Z,101297.00
2018-10-17T16:05:05.748Z,101292.00
2018-10-17T16:07:34.643Z,101294.00
2018-10-17T16:10:03.487Z,101296.00
2018-10-17T16:12:32.417Z,101298.00
2018-10-17T16:15:01.319Z,101296.00
2018-10-17T16:17:30.634Z,101293.00
2018-10-17T16:19:59.553Z,101293.00
2018-10-17T16:22:28.352Z,101301.00
2018-10-17T16:24:57.214Z,101292.00
2018-10-17T16:27:26.056Z,101295.00
2018-10-17T16:29:55.167Z,101293.00
2018-10-17T16:32:23.991Z,101298.00
2018-10-17T16:34:52.954Z,101294.00
2018-10-17T16:37:21.820Z,101296.00
2018-10-17T16:39:50.633Z,101292.00
2018-10-17T16:42:19.540Z,101299.00
2018-10-17T16:44:48.399Z,101302.00
2018-10-17T16:47:17.374Z,101303.00
2018-10-17T16:49:46.312Z,101306.00
2018-10-17T16:52:15.151Z,101307.00
2018-10-17T16:54:44.069Z,101308.00
2018-10-17T16:57:12.924Z,101316.00
2018-10-17T16:59:41.879Z,101319.00
2018-10-17T17:02:10.719Z,101321.00
2018-10-17T17:04:39.597Z,101316.00
2018-10-17T17:07:08.444Z,101319.00
2018-10-17T17:09:37.301Z,101330.00
2018-10-17T17:12:06.549Z,101332.00
2018-10-17T17:14:35.452Z,101329.00
2018-10-17T17:17:04.497Z,101331.00
2018-10-17T17:19:33.426Z,101319.00
2018-10-17T17:22:02.450Z,101332.00
2018-10-17T17:24:31.348Z,101331.00
2018-10-17T17:27:00.267Z,101331.00
2018-10-17T17:29:29.158Z,101335.00
2018-10-17T17:31:57.972Z,101334.00
2018-10-17T17:34:26.906Z,101332.00
2018-10-17T17:36:55.756Z,101330.00
2018-10-17T17:39:24.634Z,101329.00
2018-10-17T17:41:53.518Z,101333.00
2018-10-17T17:44:22.383Z,101333.00
2018-10-17T17:46:51.179Z,101332.00
2018-10-17T17:49:20.018Z,101333.00
2018-10-17T17:51:48.895Z,101328.00
2018-10-17T17:54:18.262Z,101327.00
2018-10-17T17:56:47.129Z,101329.00
2018-10-17T17:59:15.974Z,101323.00
2018-10-17T18:01:44.804Z,101324.00
2018-10-17T18:04:13.738Z,101322.00
2018-10-17T18:06:42.768Z,101324.00
2018-10-17T18:09:13.451Z,101320.00
2018-10-17T18:11:42.287Z,101321.00
2018-10-17T18:14:11.227Z,101322.00
2018-10-17T18:16:40.042Z,101326.00
2018-10-17T18:19:08.874Z,101303.00
2018-10-17T18:21:37.715Z,101329.00
2018-10-17T18:24:06.604Z,101331.00
2018-10-17T18:26:36.371Z,101325.00
2018-10-17T18:29:05.310Z,101327.00
2018-10-17T18:31:34.198Z,101326.00
2018-10-17T18:34:03.103Z,101325.00
2018-10-17T18:36:32.100Z,101323.00
2018-10-17T18:39:01.035Z,101324.00
2018-10-17T18:41:29.959Z,101328.00
2018-10-17T18:43:58.778Z,101328.00
2018-10-17T18:46:27.630Z,101335.00
2018-10-17T18:48:56.532Z,101335.00
2018-10-17T18:51:25.334Z,101332.00
2018-10-17T18:53:54.200Z,101337.00
2018-10-17T18:56:23.029Z,101328.00
2018-10-17T18:58:51.899Z,101335.00
2018-10-17T19:01:20.766Z,101339.00
2018-10-17T19:03:49.575Z,101339.00
2018-10-17T19:06:18.466Z,101337.00
2018-10-17T19:08:47.384Z,101341.00
2018-10-17T19:11:16.319Z,101340.00
2018-10-17T19:13:45.184Z,101335.00
2018-10-17T19:16:14.311Z,101355.00
2018-10-17T19:18:43.065Z,101339.00
2018-10-17T19:21:11.937Z,101344.00
2018-10-17T19:23:40.799Z,101348.00
2018-10-17T19:26:09.638Z,101347.00
2018-10-17T19:28:38.491Z,101341.00
2018-10-17T19:31:07.387Z,101347.00
2018-10-17T19:33:36.224Z,101340.00
2018-10-17T19:36:05.360Z,101349.00
2018-10-17T19:38:34.182Z,101350.00
2018-10-17T19:41:03.110Z,101349.00
2018-10-17T19:43:33.126Z,101351.00
2018-10-17T19:46:02.019Z,101356.00
2018-10-17T19:48:30.831Z,101349.00
2018-10-17T19:50:59.709Z,101355.00
2018-10-17T19:53:28.510Z,101356.00
2018-10-17T19:55:57.434Z,101348.00
2018-10-17T19:58:26.191Z,101349.00
2018-10-17T20:00:55.042Z,101349.00
2018-10-17T20:03:23.930Z,101349.00
2018-10-17T20:05:52.782Z,101358.00
2018-10-17T20:08:21.612Z,101352.00
2018-10-17T20:10:50.433Z,101349.00
2018-10-17T20:13:19.292Z,101356.00
2018-10-17T20:15:48.111Z,101356.00
2018-10-17T20:18:16.954Z,101359.00
2018-10-17T20:20:45.786Z,101355.00
2018-10-17T20:23:14.614Z,101359.00
2018-10-17T20:25:43.442Z,101364.00
2018-10-17T20:28:12.268Z,101349.00
2018-10-17T20:30:41.117Z,101355.00
2018-10-17T20:33:09.984Z,101349.00
2018-10-17T20:35:38.781Z,101345.00
2018-10-17T20:38:07.622Z,101349.00
2018-10-17T20:40:36.479Z,101351.00
2018-10-17T20:43:05.324Z,101350.00
2018-10-17T20:45:34.146Z,101357.00
2018-10-17T20:48:02.986Z,101357.00
2018-10-17T20:50:31.859Z,101360.00
2018-10-17T20:53:00.668Z,101348.00
2018-10-17T20:55:29.534Z,101341.00
2018-10-17T20:57:58.363Z,101348.00
2018-10-17T21:00:27.491Z,101346.00
2018-10-17T21:02:56.362Z,101336.00
2018-10-17T21:05:25.555Z,101327.00
2018-10-17T21:07:54.504Z,101334.00
2018-10-17T21:10:23.523Z,101334.00
2018-10-17T21:12:52.594Z,101339.00
2018-10-17T21:15:21.418Z,101332.00
2018-10-17T21:17:50.322Z,101342.00
2018-10-17T21:20:19.190Z,101344.00
2018-10-17T21:22:48.014Z,101337.00
2018-10-17T21:25:16.841Z,101343.00
2018-10-17T21:27:45.687Z,101345.00
2018-10-17T21:30:14.518Z,101340.00
2018-10-17T21:32:43.366Z,101339.00
2018-10-17T21:35:12.218Z,101338.00
2018-10-17T21:37:41.093Z,101341.00
2018-10-17T21:40:09.950Z,101337.00
2018-10-17T21:42:38.818Z,101345.00
2018-10-17T21:45:08.323Z,101338.00
2018-10-17T21:47:37.162Z,101337.00
2018-10-17T21:50:06.383Z,101323.00
2018-10-17T21:52:35.102Z,101338.00
2018-10-17T21:55:03.950Z,101329.00
2018-10-17T21:57:32.807Z,101336.00
2018-10-17T22:00:01.663Z,101338.00
2018-10-17T22:02:30.484Z,101336.00
2018-10-17T22:04:59.300Z,101332.00
2018-10-17T22:07:28.132Z,101335.00
2018-10-17T22:09:57.083Z,101334.00
2018-10-17T22:12:25.882Z,101331.00
2018-10-17T22:14:54.746Z,101331.00
2018-10-17T22:17:29.413Z,101331.00
2018-10-17T22:19:58.520Z,101324.00
2018-10-17T22:22:27.788Z,101328.00
2018-10-17T22:24:57.086Z,101323.00
2018-10-17T22:27:26.538Z,101318.00
2018-10-17T22:29:55.389Z,101315.00
2018-10-17T22:32:24.219Z,101312.00
2018-10-17T22:34:53.058Z,101318.00
2018-10-17T22:37:21.951Z,101317.00
2018-10-17T22:39:50.839Z,101325.00
2018-10-17T22:42:19.675Z,101318.00
2018-10-17T22:44:48.567Z,101323.00
2018-10-17T22:47:17.389Z,101330.00
2018-10-17T22:49:46.198Z,101322.00
2018-10-17T22:52:15.032Z,101336.00
2018-10-17T22:54:43.974Z,101342.00
2018-10-17T22:57:12.884Z,101338.00
2018-10-17T22:59:41.738Z,101337.00
2018-10-17T23:02:10.617Z,101335.00
2018-10-17T23:04:39.402Z,101329.00
2018-10-17T23:07:08.264Z,101344.00
2018-10-17T23:09:37.121Z,101333.00
2018-10-17T23:12:06.466Z,101336.00
2018-10-17T23:14:35.298Z,101334.00
2018-10-17T23:17:04.154Z,101339.00
2018-10-17T23:19:33.146Z,101327.00
2018-10-17T23:22:02.003Z,101327.00
2018-10-17T23:24:30.851Z,101331.00
2018-10-17T23:26:59.685Z,101320.00
2018-10-17T23:29:28.526Z,101321.00
2018-10-17T23:31:57.431Z,101325.00
2018-10-17T23:34:26.311Z,101329.00
2018-10-17T23:36:55.154Z,101323.00
2018-10-17T23:39:24.005Z,101312.00
2018-10-17T23:41:52.901Z,101325.00
2018-10-17T23:44:21.708Z,101316.00
2018-10-17T23:46:50.534Z,101323.00
2018-10-17T23:49:19.389Z,101314.00
2018-10-17T23:51:48.230Z,101318.00
2018-10-17T23:54:17.185Z,101321.00
2018-10-17T23:56:46.014Z,101313.00
2018-10-17T23:59:14.870Z,101317.00
